HYPE145 LRBV-LRSB
Flight info
| Callsign | HYPE145 |
|---|---|
| Flight time | 0h 35m |
| Altitude | 5500 |
| Route | PERÅANI FAGARAS CINCÅOR NOUL ROMÃN AVRIG SBI |
| Aircraft | H500/L-SDFGRY/C |
Departure
| Time | 2026-05-04 18:42 |
|---|---|
| Airport | Brașov-Ghimbav International Airport (LRBV) |
Arrival
| Time | 2026-05-04 19:17 |
|---|---|
| Airport | Sibiu International Airport (LRSB) |
| Time | Latitude | Longitude | Altitude | Speed | Heading |
|---|---|---|---|---|---|
| 2026-05-04 18:10 | 45.69456 | 25.51612 | 1760 ft | 0 kts | 126° |
| 2026-05-04 18:38 | 45.69466 | 25.51631 | 1798 ft | 3 kts | 216° |
| 2026-05-04 18:38 | 45.69413 | 25.51633 | 1800 ft | 11 kts | 254° |
| 2026-05-04 18:39 | 45.69420 | 25.51614 | 1830 ft | 10 kts | 313° |
| 2026-05-04 18:39 | 45.69485 | 25.51564 | 1828 ft | 11 kts | 293° |
| 2026-05-04 18:39 | 45.69525 | 25.51458 | 1800 ft | 12 kts | 289° |
| 2026-05-04 18:39 | 45.69555 | 25.51372 | 1763 ft | 0 kts | 312° |
| 2026-05-04 18:41 | 45.69555 | 25.51371 | 1765 ft | 0 kts | 313° |
| 2026-05-04 18:41 | 45.69580 | 25.51361 | 1868 ft | 10 kts | 317° |
| 2026-05-04 18:41 | 45.69693 | 25.51361 | 2015 ft | 26 kts | 36° |
| 2026-05-04 18:42 | 45.69986 | 25.51604 | 2102 ft | 66 kts | 38° |
| 2026-05-04 18:42 | 45.70394 | 25.52056 | 2223 ft | 79 kts | 41° |
| 2026-05-04 18:42 | 45.70840 | 25.52573 | 2370 ft | 85 kts | 39° |
| 2026-05-04 18:42 | 45.71336 | 25.53051 | 2537 ft | 86 kts | 35° |
| 2026-05-04 18:43 | 45.71855 | 25.53432 | 2747 ft | 81 kts | 7° |
| 2026-05-04 18:43 | 45.72326 | 25.53023 | 2873 ft | 88 kts | 300° |
| 2026-05-04 18:43 | 45.72401 | 25.52161 | 3044 ft | 88 kts | 272° |
| 2026-05-04 18:43 | 45.72367 | 25.51274 | 3214 ft | 88 kts | 270° |
| 2026-05-04 18:44 | 45.72348 | 25.50401 | 3372 ft | 88 kts | 274° |
| 2026-05-04 18:44 | 45.72355 | 25.49826 | 3491 ft | 87 kts | 276° |
| 2026-05-04 18:44 | 45.72416 | 25.48661 | 3857 ft | 90 kts | 290° |
| 2026-05-04 18:44 | 45.72557 | 25.47631 | 4015 ft | 116 kts | 288° |
| 2026-05-04 18:45 | 45.72730 | 25.46442 | 4092 ft | 128 kts | 287° |
| 2026-05-04 18:45 | 45.72920 | 25.45165 | 4190 ft | 135 kts | 286° |
| 2026-05-04 18:45 | 45.73131 | 25.43829 | 4252 ft | 138 kts | 288° |
| 2026-05-04 18:45 | 45.73351 | 25.42517 | 4408 ft | 131 kts | 289° |
| 2026-05-04 18:46 | 45.73574 | 25.41297 | 4574 ft | 125 kts | 291° |
| 2026-05-04 18:46 | 45.73804 | 25.40121 | 4780 ft | 122 kts | 293° |
| 2026-05-04 18:46 | 45.74043 | 25.38963 | 4991 ft | 120 kts | 294° |
| 2026-05-04 18:46 | 45.74283 | 25.37831 | 5245 ft | 119 kts | 295° |
| 2026-05-04 18:47 | 45.74529 | 25.36702 | 5455 ft | 117 kts | 295° |
| 2026-05-04 18:47 | 45.74784 | 25.35568 | 5554 ft | 126 kts | 295° |
| 2026-05-04 18:47 | 45.75064 | 25.34332 | 5536 ft | 135 kts | 294° |
| 2026-05-04 18:47 | 45.75356 | 25.33024 | 5523 ft | 138 kts | 293° |
| 2026-05-04 18:48 | 45.75648 | 25.31714 | 5522 ft | 139 kts | 293° |
| 2026-05-04 18:48 | 45.75947 | 25.30393 | 5520 ft | 140 kts | 293° |
| 2026-05-04 18:48 | 45.76249 | 25.29074 | 5520 ft | 139 kts | 294° |
| 2026-05-04 18:48 | 45.76556 | 25.27752 | 5524 ft | 138 kts | 294° |
| 2026-05-04 18:49 | 45.76860 | 25.26460 | 5524 ft | 137 kts | 294° |
| 2026-05-04 18:49 | 45.77166 | 25.25172 | 5523 ft | 138 kts | 294° |
| 2026-05-04 18:49 | 45.77475 | 25.23875 | 5521 ft | 137 kts | 294° |
| 2026-05-04 18:49 | 45.77781 | 25.22592 | 5524 ft | 136 kts | 295° |
| 2026-05-04 18:50 | 45.78092 | 25.21293 | 5524 ft | 138 kts | 295° |
| 2026-05-04 18:50 | 45.78421 | 25.20000 | 5524 ft | 138 kts | 296° |
| 2026-05-04 18:50 | 45.78776 | 25.18724 | 5524 ft | 138 kts | 297° |
| 2026-05-04 18:50 | 45.79139 | 25.17452 | 5521 ft | 137 kts | 297° |
| 2026-05-04 18:51 | 45.79503 | 25.16176 | 5522 ft | 137 kts | 297° |
| 2026-05-04 18:51 | 45.79861 | 25.14911 | 5524 ft | 138 kts | 297° |
| 2026-05-04 18:51 | 45.80217 | 25.13634 | 5525 ft | 137 kts | 297° |
| 2026-05-04 18:51 | 45.80566 | 25.12374 | 5525 ft | 138 kts | 297° |
| 2026-05-04 18:52 | 45.80918 | 25.11093 | 5524 ft | 138 kts | 297° |
| 2026-05-04 18:52 | 45.81239 | 25.09841 | 5519 ft | 125 kts | 294° |
| 2026-05-04 18:52 | 45.81512 | 25.08717 | 5527 ft | 118 kts | 295° |
| 2026-05-04 18:52 | 45.81788 | 25.07616 | 5527 ft | 115 kts | 295° |
| 2026-05-04 18:53 | 45.82060 | 25.06547 | 5523 ft | 114 kts | 296° |
| 2026-05-04 18:53 | 45.82338 | 25.05480 | 5524 ft | 114 kts | 296° |
| 2026-05-04 18:53 | 45.82621 | 25.04420 | 5524 ft | 113 kts | 296° |
| 2026-05-04 18:53 | 45.82905 | 25.03371 | 5527 ft | 112 kts | 297° |
| 2026-05-04 18:54 | 45.83191 | 25.02329 | 5527 ft | 112 kts | 297° |
| 2026-05-04 18:54 | 45.83473 | 25.01305 | 5525 ft | 111 kts | 297° |
| 2026-05-04 18:54 | 45.83757 | 25.00275 | 5523 ft | 111 kts | 297° |
| 2026-05-04 18:54 | 45.84006 | 24.99229 | 5522 ft | 113 kts | 287° |
| 2026-05-04 18:55 | 45.84057 | 24.98083 | 5525 ft | 116 kts | 276° |
| 2026-05-04 18:55 | 45.83978 | 24.95741 | 5527 ft | 118 kts | 273° |
| 2026-05-04 18:55 | 45.83935 | 24.94563 | 5527 ft | 118 kts | 274° |
| 2026-05-04 18:56 | 45.83899 | 24.93366 | 5526 ft | 119 kts | 274° |
| 2026-05-04 18:56 | 45.83873 | 24.92196 | 5525 ft | 118 kts | 274° |
| 2026-05-04 18:56 | 45.83851 | 24.91035 | 5530 ft | 117 kts | 275° |
| 2026-05-04 18:56 | 45.83833 | 24.89869 | 5527 ft | 116 kts | 275° |
| 2026-05-04 18:57 | 45.83817 | 24.88726 | 5525 ft | 116 kts | 275° |
| 2026-05-04 18:57 | 45.83801 | 24.87574 | 5528 ft | 115 kts | 275° |
| 2026-05-04 18:57 | 45.83785 | 24.86424 | 5530 ft | 116 kts | 276° |
| 2026-05-04 18:57 | 45.83769 | 24.85240 | 5526 ft | 118 kts | 276° |
| 2026-05-04 18:58 | 45.83752 | 24.84054 | 5527 ft | 119 kts | 275° |
| 2026-05-04 18:58 | 45.83716 | 24.82866 | 5524 ft | 121 kts | 270° |
| 2026-05-04 18:58 | 45.83587 | 24.81675 | 5526 ft | 119 kts | 266° |
| 2026-05-04 18:58 | 45.83425 | 24.80519 | 5526 ft | 116 kts | 265° |
| 2026-05-04 18:59 | 45.83264 | 24.79393 | 5529 ft | 116 kts | 265° |
| 2026-05-04 18:59 | 45.83109 | 24.78228 | 5532 ft | 121 kts | 266° |
| 2026-05-04 18:59 | 45.82960 | 24.77058 | 5528 ft | 121 kts | 265° |
| 2026-05-04 18:59 | 45.82814 | 24.75873 | 5528 ft | 118 kts | 266° |
| 2026-05-04 19:00 | 45.82673 | 24.74714 | 5530 ft | 119 kts | 266° |
| 2026-05-04 19:00 | 45.82532 | 24.73539 | 5531 ft | 122 kts | 266° |
| 2026-05-04 19:00 | 45.82387 | 24.72333 | 5523 ft | 121 kts | 266° |
| 2026-05-04 19:00 | 45.82241 | 24.71146 | 5528 ft | 119 kts | 266° |
| 2026-05-04 19:01 | 45.82098 | 24.69985 | 5527 ft | 119 kts | 266° |
| 2026-05-04 19:01 | 45.81956 | 24.68819 | 5528 ft | 119 kts | 266° |
| 2026-05-04 19:01 | 45.81813 | 24.67650 | 5532 ft | 120 kts | 266° |
| 2026-05-04 19:01 | 45.81668 | 24.66472 | 5531 ft | 121 kts | 265° |
| 2026-05-04 19:02 | 45.81521 | 24.65281 | 5528 ft | 119 kts | 266° |
| 2026-05-04 19:02 | 45.81376 | 24.64115 | 5533 ft | 120 kts | 266° |
| 2026-05-04 19:02 | 45.81233 | 24.62951 | 5525 ft | 120 kts | 266° |
| 2026-05-04 19:02 | 45.81085 | 24.61752 | 5523 ft | 119 kts | 266° |
| 2026-05-04 19:03 | 45.80941 | 24.60592 | 5514 ft | 120 kts | 266° |
| 2026-05-04 19:03 | 45.80794 | 24.59415 | 5500 ft | 118 kts | 266° |
| 2026-05-04 19:03 | 45.80651 | 24.58261 | 5495 ft | 118 kts | 266° |
| 2026-05-04 19:03 | 45.80468 | 24.57104 | 5498 ft | 121 kts | 257° |
| 2026-05-04 19:04 | 45.80095 | 24.56017 | 5495 ft | 122 kts | 246° |
| 2026-05-04 19:04 | 45.79658 | 24.55014 | 5496 ft | 116 kts | 243° |
| 2026-05-04 19:04 | 45.79220 | 24.54030 | 5496 ft | 117 kts | 244° |
| 2026-05-04 19:04 | 45.78793 | 24.53027 | 5497 ft | 119 kts | 246° |
| 2026-05-04 19:05 | 45.78373 | 24.51997 | 5495 ft | 120 kts | 247° |
| 2026-05-04 19:05 | 45.77966 | 24.50974 | 5496 ft | 119 kts | 246° |
| 2026-05-04 19:05 | 45.77560 | 24.49945 | 5497 ft | 118 kts | 247° |
| 2026-05-04 19:05 | 45.77155 | 24.48914 | 5500 ft | 119 kts | 246° |
| 2026-05-04 19:06 | 45.76747 | 24.47872 | 5497 ft | 120 kts | 247° |
| 2026-05-04 19:06 | 45.76475 | 24.47183 | 5496 ft | 120 kts | 246° |
| 2026-05-04 19:06 | 45.76061 | 24.46136 | 5496 ft | 121 kts | 246° |
| 2026-05-04 19:06 | 45.75645 | 24.45084 | 5494 ft | 122 kts | 246° |
| 2026-05-04 19:07 | 45.75227 | 24.44031 | 5492 ft | 121 kts | 246° |
| 2026-05-04 19:07 | 45.74811 | 24.42985 | 5496 ft | 120 kts | 246° |
| 2026-05-04 19:07 | 45.74398 | 24.41945 | 5500 ft | 121 kts | 246° |
| 2026-05-04 19:07 | 45.73981 | 24.40894 | 5494 ft | 121 kts | 246° |
| 2026-05-04 19:08 | 45.73565 | 24.39848 | 5494 ft | 121 kts | 246° |
| 2026-05-04 19:08 | 45.73148 | 24.38807 | 5494 ft | 120 kts | 246° |
| 2026-05-04 19:08 | 45.72724 | 24.37772 | 5496 ft | 121 kts | 245° |
| 2026-05-04 19:08 | 45.72533 | 24.36647 | 5493 ft | 115 kts | 277° |
| 2026-05-04 19:09 | 45.72682 | 24.35545 | 5493 ft | 111 kts | 291° |
| 2026-05-04 19:09 | 45.72911 | 24.34545 | 5469 ft | 96 kts | 291° |
| 2026-05-04 19:09 | 45.73106 | 24.33670 | 5359 ft | 92 kts | 292° |
| 2026-05-04 19:09 | 45.73295 | 24.32801 | 5220 ft | 90 kts | 291° |
| 2026-05-04 19:10 | 45.73476 | 24.31945 | 5051 ft | 90 kts | 291° |
| 2026-05-04 19:10 | 45.73599 | 24.31367 | 4941 ft | 90 kts | 291° |
| 2026-05-04 19:10 | 45.73832 | 24.30234 | 4772 ft | 89 kts | 290° |
| 2026-05-04 19:10 | 45.74009 | 24.29369 | 4632 ft | 95 kts | 290° |
| 2026-05-04 19:11 | 45.74325 | 24.28510 | 4340 ft | 97 kts | 309° |
| 2026-05-04 19:11 | 45.74762 | 24.27845 | 4218 ft | 88 kts | 321° |
| 2026-05-04 19:11 | 45.75242 | 24.27352 | 4146 ft | 83 kts | 326° |
| 2026-05-04 19:11 | 45.75715 | 24.26913 | 4087 ft | 79 kts | 326° |
| 2026-05-04 19:12 | 45.76173 | 24.26487 | 4018 ft | 78 kts | 325° |
| 2026-05-04 19:12 | 45.77044 | 24.25601 | 3929 ft | 76 kts | 323° |
| 2026-05-04 19:12 | 45.77487 | 24.25144 | 3812 ft | 83 kts | 324° |
| 2026-05-04 19:13 | 45.77958 | 24.24640 | 3660 ft | 86 kts | 321° |
| 2026-05-04 19:13 | 45.78294 | 24.23915 | 3470 ft | 91 kts | 292° |
| 2026-05-04 19:13 | 45.78368 | 24.23001 | 3295 ft | 95 kts | 274° |
| 2026-05-04 19:13 | 45.78343 | 24.22123 | 3293 ft | 83 kts | 271° |
| 2026-05-04 19:14 | 45.78308 | 24.21314 | 3287 ft | 80 kts | 271° |
| 2026-05-04 19:14 | 45.78282 | 24.20542 | 3280 ft | 76 kts | 272° |
| 2026-05-04 19:14 | 45.78262 | 24.19759 | 3094 ft | 78 kts | 271° |
| 2026-05-04 19:14 | 45.78251 | 24.18988 | 2955 ft | 76 kts | 271° |
| 2026-05-04 19:15 | 45.78258 | 24.18220 | 2784 ft | 78 kts | 272° |
| 2026-05-04 19:15 | 45.78278 | 24.17431 | 2584 ft | 80 kts | 273° |
| 2026-05-04 19:15 | 45.78326 | 24.16636 | 2391 ft | 81 kts | 275° |
| 2026-05-04 19:15 | 45.78411 | 24.15838 | 2192 ft | 81 kts | 277° |
| 2026-05-04 19:16 | 45.78495 | 24.15111 | 2160 ft | 69 kts | 278° |
| 2026-05-04 19:16 | 45.78541 | 24.14417 | 2123 ft | 73 kts | 271° |
| 2026-05-04 19:16 | 45.78568 | 24.13697 | 1955 ft | 71 kts | 270° |
| 2026-05-04 19:16 | 45.78591 | 24.13007 | 1838 ft | 65 kts | 269° |
| 2026-05-04 19:17 | 45.78625 | 24.12326 | 1926 ft | 77 kts | 272° |
| 2026-05-04 19:17 | 45.78604 | 24.11554 | 1722 ft | 72 kts | 262° |
| 2026-05-04 19:17 | 45.78544 | 24.10992 | 1655 ft | 41 kts | 255° |
| 2026-05-04 19:17 | 45.78555 | 24.10650 | 1640 ft | 29 kts | 260° |
| 2026-05-04 19:18 | 45.78554 | 24.10380 | 1586 ft | 25 kts | 257° |
| 2026-05-04 19:18 | 45.78557 | 24.10147 | 1528 ft | 21 kts | 256° |
| 2026-05-04 19:18 | 45.78559 | 24.09980 | 1491 ft | 12 kts | 256° |
| 2026-05-04 19:18 | 45.78569 | 24.09858 | 1502 ft | 15 kts | 293° |
| 2026-05-04 19:19 | 45.78596 | 24.09799 | 1477 ft | 3 kts | 8° |
| 2026-05-04 19:19 | 45.78611 | 24.09794 | 1465 ft | 3 kts | 24° |
| 2026-05-04 19:19 | 45.78626 | 24.09791 | 1458 ft | 2 kts | 30° |
| 2026-05-04 19:19 | 45.78638 | 24.09793 | 1458 ft | 0 kts | 31° |
| 2026-05-04 19:20 | 45.78661 | 24.09810 | 1483 ft | 6 kts | 350° |
| 2026-05-04 19:21 | 45.78739 | 24.09800 | 1499 ft | 17 kts | 356° |
| 2026-05-04 19:21 | 45.78868 | 24.09795 | 1458 ft | 0 kts | 17° |
| 2026-05-04 19:24 | 45.78873 | 24.09796 | 1458 ft | 0 kts | 218° |
| 2026-05-04 19:24 | 45.78869 | 24.09801 | 1460 ft | 1 kts | 162° |
| 2026-05-04 19:24 | 45.78863 | 24.09806 | 1458 ft | 0 kts | 188° |